Terminal Aerodrome Forecast
Issued by NWS

Home | Current Version | Previous Version | Text Only | Print | Product List | Glossary On
Versions: 1 2 3 4 5 6 7 8 9 10 11 12 13 14 15 16 17 18 19
000
FTUS45 KABQ 051737
TAFLVS
TAF
KLVS 051737Z 0518/0618 22010G16KT P6SM FEW060 SCT130
     FM052200 22016G26KT P6SM VCTS SCT060CB BKN120
      TEMPO 0600/0602 VRB15G25KT 5SM TSRA BKN050CB
     FM060200 28008KT P6SM -SHRA BKN060 OVC090
     FM061400 03011KT P6SM BKN080=

USA.gov is the U.S. government's official web portal to all federal, state and local government web resources and services.